Time;durP1;ratioP1;P1;durP2;ratioP2;P2;SDS_P1;SDS_P2;PMS_P1;PMS_P2;Temp;Humidity;BMP_temperature;BMP_pressure;BME280_temperature;BME280_humidity;BME280_pressure;Samples;Min_cycle;Max_cycle;Signal;HPM_P1;HPM_P2
2021/06/29 00:01:25;;;;;;;3.10;2.90;;;25.30;99.90;;;;;;5100694;28;20462;-69
2021/06/29 00:03:53;;;;;;;3.67;3.37;;;25.30;99.90;;;;;;5091783;28;20455;-69
2021/06/29 00:06:20;;;;;;;3.10;2.90;;;25.40;99.90;;;;;;5096257;28;20460;-69
2021/06/29 00:08:47;;;;;;;3.37;3.07;;;25.30;99.90;;;;;;5093828;28;20213;-69
2021/06/29 00:11:16;;;;;;;3.60;3.30;;;25.30;99.90;;;;;;5091334;28;20832;-69
2021/06/29 00:13:43;;;;;;;3.63;3.17;;;25.30;99.90;;;;;;5098019;28;20987;-69
2021/06/29 00:16:10;;;;;;;3.00;2.80;;;25.30;99.90;;;;;;5097168;28;20459;-69
2021/06/29 00:18:36;;;;;;;2.80;2.47;;;25.30;99.90;;;;;;5103606;28;20459;-69
2021/06/29 00:21:05;;;;;;;3.00;2.80;;;25.30;99.90;;;;;;5095747;28;20471;-69
2021/06/29 00:23:37;;;;;;;2.90;2.60;;;25.20;99.90;;;;;;5098724;28;20926;-69
2021/06/29 00:26:05;;;;;;;2.80;2.50;;;25.20;99.90;;;;;;5097852;28;20935;-69
2021/06/29 00:28:31;;;;;;;2.80;2.60;;;25.20;99.90;;;;;;5091449;28;20926;-69
2021/06/29 00:30:58;;;;;;;2.20;2.10;;;25.20;99.90;;;;;;5102440;28;20565;-69
2021/06/29 00:33:25;;;;;;;3.00;2.80;;;25.20;99.90;;;;;;5092172;28;20466;-69
2021/06/29 00:35:52;;;;;;;2.83;2.63;;;25.20;99.90;;;;;;5095453;28;20455;-69
2021/06/29 00:38:20;;;;;;;2.80;2.60;;;25.10;99.90;;;;;;5099021;28;20443;-69
2021/06/29 00:40:46;;;;;;;2.83;2.60;;;25.20;99.90;;;;;;5109040;28;20446;-69
2021/06/29 00:43:13;;;;;;;3.05;2.85;;;25.10;99.90;;;;;;5098932;28;20950;-69
2021/06/29 00:45:40;;;;;;;3.20;2.47;;;25.10;99.90;;;;;;5094796;28;20208;-69
2021/06/29 00:48:07;;;;;;;3.27;3.07;;;25.10;99.90;;;;;;5102467;28;20480;-69
2021/06/29 00:50:34;;;;;;;3.30;3.10;;;25.10;99.90;;;;;;5107022;28;20473;-69
2021/06/29 00:53:01;;;;;;;2.13;2.00;;;25.10;99.90;;;;;;5100863;28;20483;-69
2021/06/29 00:55:29;;;;;;;2.57;2.37;;;25.10;99.90;;;;;;5093786;28;20455;-69
2021/06/29 00:57:56;;;;;;;3.83;3.50;;;25.10;99.90;;;;;;5100676;28;20852;-69
2021/06/29 01:00:24;;;;;;;2.40;2.20;;;25.10;99.90;;;;;;5091515;28;20467;-69
2021/06/29 01:02:50;;;;;;;3.47;3.20;;;25.10;99.90;;;;;;5109171;28;20462;-69
2021/06/29 01:05:17;;;;;;;3.78;3.47;;;25.00;99.90;;;;;;5110587;28;20438;-69
2021/06/29 01:07:46;;;;;;;3.50;3.20;;;25.00;99.90;;;;;;5091939;28;20208;-69
2021/06/29 01:10:13;;;;;;;3.30;3.00;;;25.00;99.90;;;;;;5101881;28;20942;-69
2021/06/29 01:12:41;;;;;;;3.00;2.80;;;25.00;99.90;;;;;;5101674;28;20469;-69
2021/06/29 01:15:10;;;;;;;3.77;3.47;;;25.00;99.90;;;;;;5111107;28;20469;-69
2021/06/29 01:17:36;;;;;;;3.50;3.30;;;25.00;99.90;;;;;;5094683;28;20787;-69
2021/06/29 01:20:11;;;;;;;3.23;2.90;;;25.00;99.90;;;;;;5093938;28;20439;-69
2021/06/29 01:22:38;;;;;;;4.03;3.60;;;24.90;99.90;;;;;;5095274;28;20873;-69
2021/06/29 01:25:08;;;;;;;3.80;3.47;;;24.90;99.90;;;;;;5101181;28;20474;-69
2021/06/29 01:27:40;;;;;;;4.80;4.32;;;24.90;99.90;;;;;;5095244;28;20977;-69
2021/06/29 01:32:52;;;;;;;3.50;3.30;;;24.90;99.90;;;;;;5095444;28;20464;-69
2021/06/29 01:35:20;;;;;;;3.23;2.90;;;24.90;99.90;;;;;;5095887;28;20463;-69
2021/06/29 01:37:49;;;;;;;3.00;2.80;;;24.90;99.90;;;;;;5099126;28;20458;-69
2021/06/29 01:40:19;;;;;;;3.90;3.60;;;24.90;99.90;;;;;;5103388;28;20511;-69
2021/06/29 01:42:50;;;;;;;3.43;3.23;;;24.90;99.90;;;;;;5094166;28;20481;-69
2021/06/29 01:45:17;;;;;;;3.63;3.43;;;24.80;99.90;;;;;;5100800;28;21067;-69
2021/06/29 01:47:53;;;;;;;3.00;2.80;;;24.80;99.90;;;;;;5104823;28;20451;-69
2021/06/29 01:50:22;;;;;;;4.10;3.80;;;24.80;99.90;;;;;;5100833;28;20488;-69
2021/06/29 01:52:55;;;;;;;3.73;3.43;;;24.80;99.90;;;;;;5095076;28;20459;-69
2021/06/29 01:55:21;;;;;;;3.73;3.37;;;24.80;99.90;;;;;;5105421;28;20515;-69
2021/06/29 01:57:49;;;;;;;4.27;3.97;;;24.80;99.90;;;;;;5097219;28;20486;-69
2021/06/29 02:00:18;;;;;;;3.50;3.20;;;24.70;99.90;;;;;;5090314;28;20512;-69
2021/06/29 02:02:44;;;;;;;3.55;3.25;;;24.80;99.90;;;;;;5090827;28;20547;-69
2021/06/29 02:05:12;;;;;;;3.37;2.97;;;24.80;99.90;;;;;;5093248;28;20451;-69
2021/06/29 02:07:40;;;;;;;4.07;3.77;;;24.80;99.90;;;;;;5091151;28;20478;-69
2021/06/29 02:10:08;;;;;;;3.53;3.20;;;24.80;99.90;;;;;;5098565;28;20483;-69
2021/06/29 02:12:35;;;;;;;3.90;3.60;;;24.70;99.90;;;;;;5093642;28;20197;-69
2021/06/29 02:15:02;;;;;;;3.70;3.30;;;24.70;99.90;;;;;;5098793;28;20809;-69
2021/06/29 02:17:28;;;;;;;4.10;3.53;;;24.70;99.90;;;;;;5097970;28;20207;-69
2021/06/29 02:19:55;;;;;;;4.20;3.90;;;24.70;99.90;;;;;;5098323;28;20197;-69
2021/06/29 02:22:22;;;;;;;3.80;3.50;;;24.70;99.90;;;;;;5100449;28;20451;-69
2021/06/29 02:24:50;;;;;;;3.63;3.33;;;24.70;99.90;;;;;;5095110;28;20470;-68
2021/06/29 02:27:17;;;;;;;3.90;3.60;;;24.70;99.90;;;;;;5092764;28;20455;-69
2021/06/29 02:29:43;;;;;;;4.67;3.53;;;24.70;99.90;;;;;;5093099;28;20470;-69
2021/06/29 02:32:10;;;;;;;4.07;3.77;;;24.60;99.90;;;;;;5100792;28;20450;-69
2021/06/29 02:34:37;;;;;;;3.30;3.00;;;24.60;99.90;;;;;;5095078;28;20473;-69
2021/06/29 02:37:04;;;;;;;4.00;2.93;;;24.60;99.90;;;;;;5096896;28;22869;-69
2021/06/29 02:39:31;;;;;;;4.43;4.03;;;24.60;99.90;;;;;;5099577;28;20590;-69
2021/06/29 02:41:59;;;;;;;4.33;3.70;;;24.60;99.90;;;;;;5093182;28;20455;-69
2021/06/29 02:44:25;;;;;;;3.83;3.53;;;24.60;99.90;;;;;;5096761;28;20466;-69
2021/06/29 02:46:52;;;;;;;4.10;3.70;;;24.60;99.90;;;;;;5096360;28;20782;-69
2021/06/29 02:49:19;;;;;;;4.07;3.77;;;24.60;99.90;;;;;;5093332;28;20474;-69
2021/06/29 02:51:45;;;;;;;4.50;4.20;;;24.60;99.90;;;;;;5112093;28;20450;-69
2021/06/29 02:54:12;;;;;;;5.30;4.73;;;24.70;99.90;;;;;;5107567;28;20449;-69
2021/06/29 02:56:39;;;;;;;3.80;3.60;;;24.50;99.90;;;;;;5100110;28;20458;-69
2021/06/29 02:59:09;;;;;;;8.57;3.33;;;24.60;99.90;;;;;;5099654;28;20502;-69
2021/06/29 03:01:35;;;;;;;5.03;4.63;;;24.50;99.90;;;;;;5096787;28;20458;-69
2021/06/29 03:04:02;;;;;;;3.97;3.60;;;24.50;99.90;;;;;;5104762;28;20205;-69
2021/06/29 03:06:29;;;;;;;4.37;4.07;;;24.50;99.90;;;;;;5094616;28;20451;-69
2021/06/29 03:08:56;;;;;;;4.40;4.00;;;24.50;99.90;;;;;;5102727;28;20501;-69
2021/06/29 03:11:22;;;;;;;5.73;3.93;;;24.50;99.90;;;;;;5093176;28;20463;-69
2021/06/29 03:13:49;;;;;;;4.37;4.07;;;24.50;99.90;;;;;;5099916;28;20459;-69
2021/06/29 03:16:17;;;;;;;3.83;3.53;;;24.50;99.90;;;;;;5103241;28;20465;-69
2021/06/29 03:18:44;;;;;;;4.27;3.80;;;24.50;99.90;;;;;;5102490;28;20455;-69
2021/06/29 03:21:11;;;;;;;4.50;4.20;;;24.50;99.90;;;;;;5087587;28;20463;-69
2021/06/29 03:23:38;;;;;;;4.30;4.00;;;24.50;99.90;;;;;;5093026;28;20788;-69
2021/06/29 03:26:06;;;;;;;4.32;3.88;;;24.40;99.90;;;;;;5107944;28;20462;-69
2021/06/29 03:28:32;;;;;;;3.50;3.23;;;24.50;99.90;;;;;;5097889;28;20196;-69
2021/06/29 03:30:59;;;;;;;4.87;4.57;;;24.40;99.90;;;;;;5094120;28;20456;-69
2021/06/29 03:33:27;;;;;;;3.93;3.63;;;24.40;99.90;;;;;;5100037;28;20471;-69
2021/06/29 03:35:54;;;;;;;4.70;4.33;;;24.40;99.90;;;;;;5099872;28;20461;-69
2021/06/29 03:38:20;;;;;;;4.07;3.77;;;24.40;99.90;;;;;;5103825;28;20803;-69
2021/06/29 03:40:47;;;;;;;4.03;3.73;;;24.40;99.90;;;;;;5095615;28;20460;-70
2021/06/29 03:43:14;;;;;;;4.20;3.80;;;24.40;99.90;;;;;;5095441;28;20942;-69
2021/06/29 03:45:41;;;;;;;3.80;3.50;;;24.30;99.90;;;;;;5096407;28;20462;-69
2021/06/29 03:48:08;;;;;;;4.27;3.87;;;24.30;99.90;;;;;;5101948;28;20454;-69
2021/06/29 03:50:37;;;;;;;4.30;4.00;;;24.30;99.90;;;;;;5098208;28;20478;-69
2021/06/29 03:53:04;;;;;;;3.73;3.43;;;24.30;99.90;;;;;;5096926;28;20462;-69
2021/06/29 03:55:30;;;;;;;5.70;3.70;;;24.30;99.90;;;;;;5096274;28;20458;-69
2021/06/29 03:57:57;;;;;;;4.13;3.83;;;24.30;99.90;;;;;;5099816;28;20482;-69
2021/06/29 04:00:24;;;;;;;4.00;3.70;;;24.30;99.90;;;;;;5100926;28;20451;-69
2021/06/29 04:02:51;;;;;;;4.10;3.57;;;24.30;99.90;;;;;;5102401;28;20465;-69
2021/06/29 04:05:18;;;;;;;3.92;3.20;;;24.30;99.90;;;;;;5098628;28;20455;-69
2021/06/29 04:07:47;;;;;;;3.47;3.17;;;24.30;99.90;;;;;;5095754;28;20202;-70
2021/06/29 04:10:15;;;;;;;4.30;4.00;;;24.20;99.90;;;;;;5095084;28;20566;-69
2021/06/29 04:12:41;;;;;;;4.03;3.72;;;24.30;99.90;;;;;;5092412;28;20463;-70
2021/06/29 04:15:10;;;;;;;3.43;3.13;;;24.20;99.90;;;;;;5105248;28;20191;-70
2021/06/29 04:17:36;;;;;;;3.37;3.17;;;24.20;99.90;;;;;;5091399;28;20471;-69
2021/06/29 04:20:05;;;;;;;3.53;3.23;;;24.20;99.90;;;;;;5093865;28;20451;-69
2021/06/29 04:22:31;;;;;;;3.93;3.63;;;24.20;99.90;;;;;;5103378;28;20456;-69
2021/06/29 04:24:59;;;;;;;4.33;3.70;;;24.20;99.90;;;;;;5092006;28;20466;-69
2021/06/29 04:27:26;;;;;;;3.73;3.43;;;24.20;99.90;;;;;;5097358;28;20466;-69
2021/06/29 04:29:53;;;;;;;4.00;3.40;;;24.20;99.90;;;;;;5090748;28;20494;-69
2021/06/29 04:32:20;;;;;;;4.77;3.87;;;24.20;99.90;;;;;;5093583;28;20193;-69
2021/06/29 04:34:47;;;;;;;3.83;3.53;;;24.20;99.90;;;;;;5091888;28;20466;-69
2021/06/29 04:37:14;;;;;;;5.35;4.00;;;24.10;99.90;;;;;;5095475;28;20486;-69
2021/06/29 04:39:41;;;;;;;3.50;3.20;;;24.20;99.90;;;;;;5093122;28;20197;-69
2021/06/29 04:42:10;;;;;;;4.13;3.57;;;24.20;99.90;;;;;;5092594;28;20791;-69
2021/06/29 04:44:38;;;;;;;3.83;3.50;;;24.20;99.90;;;;;;5094860;28;20455;-69
2021/06/29 04:47:05;;;;;;;4.83;3.77;;;24.20;99.90;;;;;;5100973;28;20443;-69
2021/06/29 04:49:32;;;;;;;4.23;3.40;;;23.60;99.90;;;;;;5104103;28;20483;-69
2021/06/29 04:51:59;;;;;;;3.60;3.30;;;24.10;99.90;;;;;;5102518;28;20469;-69
2021/06/29 04:54:26;;;;;;;3.60;3.30;;;24.20;99.90;;;;;;5098676;28;20196;-68
2021/06/29 04:56:53;;;;;;;4.40;4.10;;;24.10;99.90;;;;;;5099598;28;20741;-69
2021/06/29 04:59:21;;;;;;;4.13;3.83;;;24.10;99.90;;;;;;5091370;28;20454;-69
2021/06/29 05:01:48;;;;;;;3.65;3.42;;;24.10;99.90;;;;;;5095208;28;20447;-69
2021/06/29 05:04:14;;;;;;;3.03;2.83;;;24.10;99.90;;;;;;5099169;28;20207;-69
2021/06/29 05:06:41;;;;;;;3.70;3.40;;;24.10;99.90;;;;;;5095597;28;20451;-69
2021/06/29 05:09:08;;;;;;;3.63;3.40;;;24.10;99.90;;;;;;5100185;28;20454;-69
2021/06/29 05:11:36;;;;;;;3.87;3.57;;;24.10;99.90;;;;;;5096999;28;20461;-69
2021/06/29 05:14:03;;;;;;;3.45;3.15;;;24.20;99.90;;;;;;5103548;28;20467;-69
2021/06/29 05:16:31;;;;;;;4.80;3.63;;;24.20;99.90;;;;;;5103533;28;20251;-69
2021/06/29 05:18:58;;;;;;;7.53;3.27;;;24.20;99.90;;;;;;5099165;28;21152;-69
2021/06/29 05:21:24;;;;;;;3.70;3.33;;;24.20;99.90;;;;;;5100862;28;20481;-70
2021/06/29 05:23:51;;;;;;;5.63;3.60;;;24.20;99.90;;;;;;5097443;28;20451;-70
2021/06/29 05:26:18;;;;;;;6.10;3.80;;;24.20;99.90;;;;;;5094113;28;20455;-69
2021/06/29 05:28:46;;;;;;;5.93;3.90;;;24.20;99.90;;;;;;5103785;28;20559;-69
2021/06/29 05:31:12;;;;;;;3.20;3.00;;;24.20;99.90;;;;;;5099847;28;21267;-69
2021/06/29 05:33:41;;;;;;;4.17;3.60;;;24.20;99.90;;;;;;5094471;28;20466;-69
2021/06/29 05:36:08;;;;;;;3.13;2.83;;;24.20;99.90;;;;;;5090858;28;20462;-69
2021/06/29 05:38:34;;;;;;;3.70;3.40;;;24.30;99.90;;;;;;5093581;28;20203;-69
2021/06/29 05:41:01;;;;;;;3.23;2.93;;;24.20;99.90;;;;;;5101702;28;20446;-69
2021/06/29 05:43:28;;;;;;;5.10;3.73;;;24.30;99.90;;;;;;5103199;28;20952;-69
2021/06/29 05:45:55;;;;;;;3.63;3.33;;;24.30;99.90;;;;;;5090871;28;20757;-69
2021/06/29 05:48:22;;;;;;;3.53;3.23;;;24.40;99.90;;;;;;5095065;28;20799;-69
2021/06/29 05:50:50;;;;;;;5.95;3.72;;;24.80;99.90;;;;;;5090718;28;20471;-69
2021/06/29 05:53:17;;;;;;;5.90;3.90;;;24.50;99.90;;;;;;5096735;28;20243;-69
2021/06/29 05:55:44;;;;;;;5.10;3.30;;;24.50;99.90;;;;;;5100347;28;20463;-69
2021/06/29 05:58:11;;;;;;;3.80;3.10;;;24.50;99.90;;;;;;5099550;28;20940;-69
2021/06/29 06:00:38;;;;;;;4.20;3.60;;;24.50;99.90;;;;;;5102432;28;20447;-70
2021/06/29 06:03:05;;;;;;;3.90;3.10;;;24.40;99.90;;;;;;5099054;28;20581;-69
2021/06/29 06:05:31;;;;;;;5.93;3.40;;;24.50;99.90;;;;;;5096935;28;20451;-69
2021/06/29 06:07:59;;;;;;;15.02;3.50;;;24.40;99.90;;;;;;5098295;28;20466;-69
2021/06/29 06:10:26;;;;;;;3.40;3.20;;;24.40;99.90;;;;;;5096565;28;20217;-70
2021/06/29 06:12:53;;;;;;;3.50;3.20;;;24.30;99.90;;;;;;5099510;28;20537;-69
2021/06/29 06:15:20;;;;;;;3.00;2.80;;;24.30;99.90;;;;;;5104273;28;20197;-70
2021/06/29 06:17:47;;;;;;;4.73;3.33;;;24.40;99.90;;;;;;5105525;28;20458;-69
2021/06/29 06:20:13;;;;;;;6.60;3.58;;;24.30;99.90;;;;;;5100891;28;20458;-69
2021/06/29 06:22:40;;;;;;;3.87;3.60;;;24.40;99.90;;;;;;5101221;28;20193;-69
2021/06/29 06:25:09;;;;;;;3.13;2.83;;;24.30;99.90;;;;;;5101680;28;20952;-69
2021/06/29 06:27:36;;;;;;;3.70;3.40;;;24.40;99.90;;;;;;5101247;28;20462;-70
2021/06/29 06:30:03;;;;;;;3.67;3.37;;;24.30;99.90;;;;;;5098251;28;20474;-69
2021/06/29 06:32:30;;;;;;;4.90;4.00;;;24.50;99.90;;;;;;5101562;28;20456;-69
2021/06/29 06:34:58;;;;;;;5.13;3.83;;;24.40;99.90;;;;;;5103184;28;20455;-69
2021/06/29 06:37:24;;;;;;;5.93;3.73;;;24.40;99.90;;;;;;5098772;28;20465;-69
2021/06/29 06:39:51;;;;;;;3.40;3.10;;;24.50;99.90;;;;;;5101557;28;20451;-69
2021/06/29 06:42:19;;;;;;;3.20;3.00;;;24.50;99.90;;;;;;5100920;28;20465;-69
2021/06/29 06:44:46;;;;;;;3.73;3.43;;;24.50;99.90;;;;;;5098644;28;20466;-69
2021/06/29 06:47:12;;;;;;;3.37;3.10;;;24.60;99.90;;;;;;5097090;28;20655;-70
2021/06/29 06:49:40;;;;;;;3.13;2.90;;;24.60;99.90;;;;;;5096206;28;20458;-70
2021/06/29 06:52:07;;;;;;;3.15;2.95;;;24.60;99.90;;;;;;5100128;28;20487;-69
2021/06/29 06:54:34;;;;;;;3.30;3.00;;;24.50;99.90;;;;;;5102462;28;20204;-70
2021/06/29 06:57:01;;;;;;;3.77;3.47;;;24.80;99.90;;;;;;5101684;28;20484;-70
2021/06/29 06:59:29;;;;;;;3.67;3.40;;;24.80;99.90;;;;;;5099579;28;20481;-70
2021/06/29 07:01:56;;;;;;;3.50;3.20;;;24.80;99.90;;;;;;5099150;28;20455;-69
2021/06/29 07:04:22;;;;;;;3.27;2.93;;;24.90;99.90;;;;;;5096787;28;20549;-69
2021/06/29 07:06:49;;;;;;;3.93;3.57;;;24.90;99.90;;;;;;5097795;28;20470;-70
2021/06/29 07:09:16;;;;;;;4.37;4.07;;;24.90;99.90;;;;;;5098898;28;20464;-70
2021/06/29 07:11:43;;;;;;;4.10;3.80;;;24.90;99.90;;;;;;5101907;28;20541;-69
2021/06/29 07:14:10;;;;;;;4.40;3.67;;;24.90;99.90;;;;;;5100150;28;20462;-69
2021/06/29 07:16:38;;;;;;;3.87;3.57;;;24.90;99.90;;;;;;5096199;28;20451;-69
2021/06/29 07:19:05;;;;;;;3.53;3.30;;;24.90;99.90;;;;;;5100121;28;20450;-69
2021/06/29 07:21:32;;;;;;;3.77;3.57;;;24.80;99.90;;;;;;5103941;28;20489;-69
2021/06/29 07:23:59;;;;;;;3.53;3.33;;;24.80;99.90;;;;;;5100810;28;20459;-69
2021/06/29 07:26:26;;;;;;;4.47;3.77;;;24.80;99.90;;;;;;5098630;28;20463;-70
2021/06/29 07:28:53;;;;;;;4.13;3.83;;;24.80;99.90;;;;;;5097308;28;20466;-69
2021/06/29 07:31:20;;;;;;;3.80;3.50;;;24.80;99.90;;;;;;5099135;28;20474;-70
2021/06/29 07:33:48;;;;;;;3.47;3.17;;;24.80;99.90;;;;;;5105823;28;20459;-70
2021/06/29 07:36:16;;;;;;;3.43;3.23;;;24.70;99.90;;;;;;5096749;28;20530;-70
2021/06/29 07:38:43;;;;;;;6.40;4.13;;;24.70;99.90;;;;;;5097797;28;20454;-70
2021/06/29 07:41:10;;;;;;;6.50;3.80;;;24.80;99.90;;;;;;5096107;28;20448;-70
2021/06/29 07:43:36;;;;;;;4.07;3.77;;;24.80;99.90;;;;;;5100101;28;20458;-70
2021/06/29 07:46:03;;;;;;;4.03;3.73;;;24.70;99.90;;;;;;5102193;28;20463;-70
2021/06/29 07:48:30;;;;;;;3.83;3.53;;;24.70;99.90;;;;;;5097195;28;20465;-70
2021/06/29 07:50:58;;;;;;;3.80;3.50;;;24.70;99.90;;;;;;5099382;28;20483;-70
2021/06/29 07:53:25;;;;;;;3.20;3.00;;;24.70;99.90;;;;;;5103503;28;20459;-69
2021/06/29 07:55:52;;;;;;;3.93;3.63;;;24.70;99.90;;;;;;5098589;28;20461;-69
2021/06/29 07:58:19;;;;;;;7.90;4.53;;;24.70;99.90;;;;;;5111279;28;20482;-69
2021/06/29 08:00:46;;;;;;;8.30;4.20;;;24.80;99.90;;;;;;5108739;28;20815;-70
2021/06/29 08:03:13;;;;;;;4.17;3.87;;;24.80;99.90;;;;;;5108462;28;20905;-69
2021/06/29 08:05:40;;;;;;;4.00;3.70;;;24.80;99.90;;;;;;5101171;28;20466;-69
2021/06/29 08:08:09;;;;;;;3.97;3.67;;;24.80;99.90;;;;;;5099329;28;20478;-69
2021/06/29 08:10:36;;;;;;;5.93;3.87;;;24.80;99.90;;;;;;5092669;28;20475;-69
2021/06/29 08:13:03;;;;;;;4.80;4.40;;;24.90;99.90;;;;;;5108161;27;20454;-70
2021/06/29 08:15:30;;;;;;;4.90;4.40;;;24.80;99.90;;;;;;5093627;28;20447;-69
2021/06/29 08:17:57;;;;;;;3.60;3.30;;;24.90;99.90;;;;;;5093693;28;20452;-69
2021/06/29 08:20:23;;;;;;;4.83;4.43;;;24.90;99.90;;;;;;5103574;28;20457;-70
2021/06/29 08:22:53;;;;;;;4.30;4.00;;;24.90;99.90;;;;;;5093290;28;20831;-69
2021/06/29 08:25:21;;;;;;;4.67;4.27;;;24.90;99.90;;;;;;5102792;28;20929;-69
2021/06/29 08:27:49;;;;;;;4.40;4.10;;;24.90;99.90;;;;;;5097731;27;20451;-69
2021/06/29 08:30:17;;;;;;;4.40;4.10;;;24.90;99.90;;;;;;5101364;28;20458;-69
2021/06/29 08:32:44;;;;;;;5.80;5.15;;;24.90;99.90;;;;;;5100030;28;20451;-69
2021/06/29 08:35:12;;;;;;;4.10;3.80;;;24.90;99.90;;;;;;5096544;28;20198;-69
2021/06/29 08:37:39;;;;;;;5.90;4.93;;;24.80;99.90;;;;;;5099420;27;20485;-69
2021/06/29 08:40:09;;;;;;;5.53;5.03;;;24.90;99.90;;;;;;5102732;28;20205;-70
2021/06/29 08:42:37;;;;;;;4.90;4.60;;;25.00;99.90;;;;;;5097156;28;20454;-69
2021/06/29 08:45:06;;;;;;;5.30;4.70;;;25.00;99.90;;;;;;5107023;27;20562;-69
2021/06/29 08:47:34;;;;;;;5.70;5.10;;;25.10;99.90;;;;;;5100057;28;20941;-69
2021/06/29 08:50:01;;;;;;;5.07;4.60;;;25.10;99.90;;;;;;5098220;28;20491;-69
2021/06/29 08:52:29;;;;;;;4.00;3.70;;;25.10;99.90;;;;;;5096517;28;20789;-69
2021/06/29 08:54:56;;;;;;;5.20;4.57;;;25.10;99.90;;;;;;5101941;28;20555;-70
2021/06/29 08:57:23;;;;;;;8.77;5.40;;;25.30;99.90;;;;;;5101035;28;20488;-69
2021/06/29 08:59:51;;;;;;;4.97;4.43;;;25.20;99.90;;;;;;5100341;28;20468;-69
2021/06/29 09:02:18;;;;;;;5.23;4.77;;;25.30;99.90;;;;;;5108298;28;20456;-69
2021/06/29 09:04:46;;;;;;;5.33;4.83;;;25.30;99.90;;;;;;5099027;28;20965;-69
2021/06/29 09:07:20;;;;;;;6.43;5.30;;;25.30;99.90;;;;;;5091821;28;20468;-70
2021/06/29 09:09:48;;;;;;;4.93;4.53;;;25.30;99.90;;;;;;5097782;27;20457;-69
2021/06/29 09:12:46;;;;;;;5.10;4.70;;;25.30;99.90;;;;;;5095146;28;20483;-70
2021/06/29 09:15:35;;;;;;;5.50;5.10;;;25.30;99.90;;;;;;5096902;28;20758;-70
2021/06/29 09:18:20;;;;;;;4.67;4.27;;;25.30;99.90;;;;;;5102832;28;20804;-70
2021/06/29 09:20:53;;;;;;;5.43;4.93;;;25.20;99.90;;;;;;5101769;27;20451;-69
2021/06/29 09:23:21;;;;;;;5.37;4.97;;;25.20;99.90;;;;;;5096490;28;20484;-68
2021/06/29 09:25:50;;;;;;;5.80;5.30;;;25.30;99.90;;;;;;5110229;28;20440;-72
2021/06/29 09:28:20;;;;;;;5.50;5.00;;;25.20;99.90;;;;;;5089131;28;20460;-70
2021/06/29 09:30:49;;;;;;;6.50;5.27;;;25.30;99.90;;;;;;5097319;28;20485;-68
2021/06/29 09:33:19;;;;;;;5.13;4.73;;;25.30;99.90;;;;;;5091758;28;20472;-68
2021/06/29 09:35:52;;;;;;;4.97;4.47;;;25.40;99.90;;;;;;5092590;28;20459;-70
2021/06/29 09:38:22;;;;;;;5.70;5.30;;;25.40;99.90;;;;;;5096874;28;20194;-70
2021/06/29 09:40:58;;;;;;;5.70;5.10;;;25.40;99.90;;;;;;5090565;28;20552;-70
2021/06/29 09:43:27;;;;;;;5.40;4.95;;;25.50;99.90;;;;;;5096640;28;20450;-71
2021/06/29 09:45:57;;;;;;;4.32;4.03;;;25.40;99.90;;;;;;5098043;28;20192;-70
2021/06/29 09:48:46;;;;;;;5.03;4.63;;;25.50;99.90;;;;;;5095665;28;20206;-70
2021/06/29 09:51:16;;;;;;;4.80;4.40;;;25.50;99.90;;;;;;5095983;28;20777;-71
2021/06/29 09:53:43;;;;;;;4.13;3.83;;;25.50;99.90;;;;;;5096583;28;20466;-70
2021/06/29 09:56:13;;;;;;;5.10;4.70;;;25.50;99.90;;;;;;5099400;27;20460;-70
2021/06/29 09:58:42;;;;;;;4.33;4.00;;;25.50;99.90;;;;;;5097259;28;20737;-70
2021/06/29 10:01:14;;;;;;;5.00;4.30;;;25.50;99.90;;;;;;5105640;27;20902;-71
2021/06/29 10:03:42;;;;;;;5.30;4.70;;;25.60;99.90;;;;;;5100803;28;21081;-70
2021/06/29 10:06:12;;;;;;;4.40;4.10;;;25.60;99.90;;;;;;5105469;28;20797;-70
2021/06/29 10:08:40;;;;;;;4.33;3.77;;;25.70;99.90;;;;;;5101115;28;20468;-70
2021/06/29 10:11:19;;;;;;;4.37;3.97;;;25.70;99.90;;;;;;5101532;27;20487;-70
2021/06/29 10:13:52;;;;;;;4.57;3.80;;;25.70;99.90;;;;;;5100997;28;20459;-70
2021/06/29 10:16:23;;;;;;;3.97;3.60;;;25.80;99.90;;;;;;5101993;28;20285;-70
2021/06/29 10:19:02;;;;;;;5.10;4.50;;;25.80;99.90;;;;;;5103444;28;20552;-70
2021/06/29 10:21:30;;;;;;;4.80;4.30;;;25.80;99.90;;;;;;5100169;28;20450;-71
2021/06/29 10:23:57;;;;;;;4.60;4.20;;;25.80;99.90;;;;;;5100398;28;20465;-70
2021/06/29 10:26:26;;;;;;;4.63;4.33;;;25.80;99.90;;;;;;5099298;27;20455;-70
2021/06/29 10:28:53;;;;;;;3.50;3.30;;;25.80;99.90;;;;;;5098368;28;20456;-70
2021/06/29 10:31:25;;;;;;;4.40;4.10;;;25.70;99.90;;;;;;5102966;28;20472;-70
2021/06/29 10:33:54;;;;;;;4.17;3.83;;;25.70;99.90;;;;;;5102015;27;20465;-70
2021/06/29 10:36:22;;;;;;;3.77;3.47;;;25.70;99.90;;;;;;5099622;28;20469;-70
2021/06/29 10:38:49;;;;;;;5.80;4.20;;;25.70;99.90;;;;;;5099174;28;20965;-70
2021/06/29 10:41:17;;;;;;;4.17;3.87;;;25.70;99.90;;;;;;5100771;28;20784;-71
2021/06/29 10:43:45;;;;;;;4.23;3.80;;;25.70;99.90;;;;;;5096437;28;20845;-71
2021/06/29 10:46:15;;;;;;;3.80;3.50;;;25.70;99.90;;;;;;5100268;28;20450;-70
2021/06/29 10:48:43;;;;;;;4.35;4.05;;;25.70;99.90;;;;;;5096649;28;20197;-71
2021/06/29 10:51:14;;;;;;;5.47;5.07;;;25.40;99.90;;;;;;5094569;28;20202;-70
2021/06/29 10:53:46;;;;;;;6.70;6.20;;;25.70;99.90;;;;;;5100473;28;20453;-69
2021/06/29 10:56:17;;;;;;;4.90;4.60;;;25.70;99.90;;;;;;5098852;28;20458;-73
2021/06/29 10:58:47;;;;;;;6.83;6.23;;;25.70;99.90;;;;;;5093848;27;20476;-70
2021/06/29 11:01:25;;;;;;;6.47;5.87;;;25.70;99.90;;;;;;5104892;27;20479;-70
2021/06/29 11:03:55;;;;;;;8.00;7.30;;;25.60;99.90;;;;;;5094966;28;20965;-71
2021/06/29 11:06:42;;;;;;;7.93;7.33;;;25.70;99.90;;;;;;5100798;28;20208;-71
2021/06/29 11:09:10;;;;;;;7.53;6.27;;;25.70;99.90;;;;;;5097892;28;20481;-71
2021/06/29 11:11:37;;;;;;;6.53;6.03;;;25.80;99.90;;;;;;5097824;28;21348;-69
2021/06/29 11:14:23;;;;;;;8.67;7.83;;;25.80;99.90;;;;;;5099758;28;20905;-69
2021/06/29 11:16:53;;;;;;;8.20;7.60;;;25.90;99.90;;;;;;5101669;28;20458;-68
2021/06/29 11:19:21;;;;;;;8.10;7.50;;;26.00;99.90;;;;;;5100087;28;20457;-70
2021/06/29 11:21:48;;;;;;;9.50;8.80;;;26.00;99.90;;;;;;5098071;28;20453;-69
2021/06/29 11:24:38;;;;;;;8.77;8.03;;;26.10;99.90;;;;;;5094215;28;20453;-70
2021/06/29 11:27:05;;;;;;;9.17;8.07;;;26.10;99.90;;;;;;5093895;28;20455;-69
2021/06/29 11:29:43;;;;;;;9.07;8.27;;;26.20;99.90;;;;;;5099317;28;20461;-69
2021/06/29 11:32:33;;;;;;;7.97;7.33;;;26.20;99.90;;;;;;5099260;28;20495;-69
2021/06/29 11:35:36;;;;;;;10.23;9.33;;;26.20;99.90;;;;;;5075547;28;20795;-69
2021/06/29 11:38:07;;;;;;;7.77;7.17;;;26.30;99.90;;;;;;5096080;28;20452;-70
2021/06/29 11:40:34;;;;;;;9.10;8.40;;;26.30;99.90;;;;;;5100613;28;20454;-70
2021/06/29 11:43:09;;;;;;;9.43;8.43;;;26.30;99.90;;;;;;5098705;28;20457;-70
2021/06/29 11:45:36;;;;;;;8.20;7.60;;;26.30;99.90;;;;;;5102116;28;20460;-70
2021/06/29 11:48:03;;;;;;;8.00;7.40;;;26.30;99.90;;;;;;5096707;28;20454;-70
2021/06/29 11:50:41;;;;;;;8.57;7.77;;;26.30;99.90;;;;;;5099353;28;20458;-70
2021/06/29 11:53:23;;;;;;;9.40;8.70;;;26.30;99.90;;;;;;5101309;28;20566;-69
2021/06/29 11:55:49;;;;;;;10.03;9.17;;;26.30;99.90;;;;;;5093526;28;20451;-69
2021/06/29 11:58:16;;;;;;;8.50;7.80;;;27.20;99.90;;;;;;5093613;28;20494;-69
2021/06/29 12:00:43;;;;;;;9.30;8.60;;;26.30;99.90;;;;;;5094990;28;20450;-69
2021/06/29 12:03:12;;;;;;;9.17;8.37;;;26.30;99.90;;;;;;5096429;28;20466;-69
2021/06/29 12:05:40;;;;;;;8.00;7.30;;;26.30;99.90;;;;;;5103818;28;20461;-68
2021/06/29 12:08:08;;;;;;;9.40;8.70;;;26.30;99.90;;;;;;5103546;28;20463;-69
2021/06/29 12:10:39;;;;;;;9.30;8.50;;;26.30;99.90;;;;;;5093765;28;21204;-69
2021/06/29 12:13:08;;;;;;;8.73;8.03;;;26.20;99.90;;;;;;5097545;28;20478;-69
2021/06/29 12:15:37;;;;;;;8.53;7.53;;;26.30;99.90;;;;;;5112834;28;20449;-68
2021/06/29 12:18:06;;;;;;;8.83;8.13;;;26.30;99.90;;;;;;5101946;28;20556;-68
2021/06/29 12:20:36;;;;;;;8.30;7.70;;;26.40;99.90;;;;;;5102587;28;20482;-69
2021/06/29 12:23:05;;;;;;;10.30;9.50;;;26.40;99.90;;;;;;5108291;28;20919;-69
2021/06/29 12:25:34;;;;;;;9.70;8.90;;;26.30;99.90;;;;;;5099816;28;20511;-69
2021/06/29 12:28:05;;;;;;;9.82;9.02;;;26.30;99.90;;;;;;5102238;28;20942;-68
2021/06/29 12:30:39;;;;;;;9.40;8.70;;;26.30;99.90;;;;;;5111510;28;20193;-69
2021/06/29 12:33:17;;;;;;;9.57;8.67;;;26.30;99.90;;;;;;5111110;28;20545;-69
2021/06/29 12:35:45;;;;;;;9.65;8.85;;;26.30;99.90;;;;;;5095576;28;20459;-70
2021/06/29 12:38:15;;;;;;;13.70;12.50;;;26.40;99.90;;;;;;5092266;28;20202;-74
2021/06/29 12:40:45;;;;;;;10.47;9.57;;;26.20;99.90;;;;;;5091822;28;20818;-71
2021/06/29 12:43:38;;;;;;;10.43;9.53;;;26.30;99.90;;;;;;5105551;28;20787;-70
2021/06/29 12:46:29;;;;;;;9.80;8.50;;;26.30;99.90;;;;;;5086701;28;20456;-70
2021/06/29 12:48:57;;;;;;;9.53;8.73;;;26.40;99.90;;;;;;5077345;28;20448;-70
2021/06/29 12:51:24;;;;;;;9.50;8.77;;;26.40;99.90;;;;;;5091950;28;20448;-70
2021/06/29 12:53:56;;;;;;;9.77;8.88;;;26.40;99.90;;;;;;5100201;28;20820;-70
2021/06/29 12:56:30;;;;;;;8.77;8.07;;;26.40;99.90;;;;;;5107537;28;20207;-70